createdAt,value
2019-05-21T00:00:12.660Z,13.87
2019-05-21T00:01:12.584Z,13.86
2019-05-21T00:02:12.512Z,13.84
2019-05-21T00:03:12.457Z,13.94
2019-05-21T00:04:27.114Z,13.95
2019-05-21T00:05:12.282Z,13.96
2019-05-21T00:06:12.206Z,13.86
2019-05-21T00:07:12.128Z,13.87
2019-05-21T00:08:12.054Z,13.89
2019-05-21T00:09:11.978Z,13.91
2019-05-21T00:10:11.909Z,13.81
2019-05-21T00:11:11.828Z,13.91
2019-05-21T00:12:11.750Z,13.83
2019-05-21T00:13:11.679Z,13.91
2019-05-21T00:14:11.600Z,13.84
2019-05-21T00:15:11.660Z,13.83
2019-05-21T00:16:11.448Z,13.92
2019-05-21T00:17:11.375Z,13.86
2019-05-21T00:18:11.342Z,13.81
2019-05-21T00:19:11.238Z,13.83
2019-05-21T00:20:11.144Z,13.78
2019-05-21T00:21:11.211Z,13.84
2019-05-21T00:22:10.995Z,13.84
2019-05-21T00:23:10.918Z,13.84
2019-05-21T00:24:10.841Z,13.89
2019-05-21T00:25:10.772Z,13.83
2019-05-21T00:26:10.688Z,13.83
2019-05-21T00:27:10.612Z,13.84
2019-05-21T00:28:10.539Z,13.83
2019-05-21T00:29:10.461Z,13.89
2019-05-21T00:30:10.386Z,13.83
2019-05-21T00:31:10.309Z,13.87
2019-05-21T00:32:10.233Z,13.84
2019-05-21T00:33:10.159Z,13.83
2019-05-21T00:34:10.083Z,13.94
2019-05-21T00:35:10.030Z,13.84
2019-05-21T00:36:09.930Z,13.83
2019-05-21T00:37:09.853Z,13.92
2019-05-21T00:38:09.779Z,13.89
2019-05-21T00:39:09.701Z,13.84
2019-05-21T00:40:09.625Z,13.91
2019-05-21T00:41:09.556Z,13.76
2019-05-21T00:42:09.575Z,13.77
2019-05-21T00:43:09.420Z,13.74
2019-05-21T00:44:09.327Z,13.81
2019-05-21T00:45:09.247Z,13.83
2019-05-21T00:46:09.170Z,13.84
2019-05-21T00:47:09.103Z,13.78
2019-05-21T00:48:09.018Z,13.84
2019-05-21T00:49:08.942Z,13.81
2019-05-21T00:50:08.875Z,13.71
2019-05-21T00:51:08.791Z,13.80
2019-05-21T00:52:09.447Z,13.80
2019-05-21T00:53:08.640Z,13.86
2019-05-21T00:54:08.568Z,13.87
2019-05-21T00:55:08.489Z,13.89
2019-05-21T00:56:08.412Z,13.86
2019-05-21T00:57:08.340Z,13.86
2019-05-21T00:58:08.359Z,13.89
2019-05-21T00:59:08.185Z,13.87
2019-05-21T01:00:08.220Z,13.87
2019-05-21T01:01:08.032Z,13.78
2019-05-21T01:02:07.958Z,13.76
2019-05-21T01:03:07.878Z,13.66
2019-05-21T01:04:07.807Z,13.76
2019-05-21T01:05:07.731Z,13.74
2019-05-21T01:06:07.652Z,13.73
2019-05-21T01:07:07.576Z,13.73
2019-05-21T01:08:07.500Z,13.80
2019-05-21T01:09:07.424Z,13.81
2019-05-21T01:10:07.347Z,13.84
2019-05-21T01:11:07.270Z,13.76
2019-05-21T01:12:07.201Z,13.74
2019-05-21T01:13:07.120Z,13.76
2019-05-21T01:14:07.045Z,13.74
2019-05-21T01:15:06.967Z,13.71
2019-05-21T01:16:06.890Z,13.76
2019-05-21T01:17:06.816Z,13.80
2019-05-21T01:18:06.739Z,13.73
2019-05-21T01:19:06.662Z,13.70
2019-05-21T01:20:06.600Z,13.73
2019-05-21T01:21:06.511Z,13.70
2019-05-21T01:22:06.434Z,13.87
2019-05-21T01:23:06.359Z,13.77
2019-05-21T01:24:06.284Z,13.76
2019-05-21T01:25:06.208Z,13.78
2019-05-21T01:26:06.130Z,13.73
2019-05-21T01:27:06.055Z,13.71
2019-05-21T01:28:05.979Z,13.77
2019-05-21T01:29:06.021Z,13.84
2019-05-21T01:30:05.830Z,13.83
2019-05-21T01:31:05.756Z,13.87
2019-05-21T01:32:05.676Z,13.84
2019-05-21T01:33:05.598Z,13.86
2019-05-21T01:34:05.522Z,13.86
2019-05-21T01:35:16.813Z,13.87
2019-05-21T01:36:05.372Z,13.87
2019-05-21T01:37:05.304Z,13.87
2019-05-21T01:38:05.220Z,13.87
2019-05-21T01:39:05.140Z,13.74
2019-05-21T01:40:05.163Z,13.84
2019-05-21T01:41:04.989Z,13.76
2019-05-21T01:42:04.913Z,13.76
2019-05-21T01:43:04.836Z,13.76
2019-05-21T01:44:04.761Z,13.74
2019-05-21T01:45:04.784Z,13.71
2019-05-21T01:46:04.609Z,13.80
2019-05-21T01:47:04.535Z,13.71
2019-05-21T01:48:04.457Z,13.70
2019-05-21T01:49:04.378Z,13.74
2019-05-21T01:50:04.303Z,13.71
2019-05-21T01:51:04.227Z,13.71
2019-05-21T01:52:04.151Z,13.70
2019-05-21T01:53:04.078Z,13.68
2019-05-21T01:54:03.999Z,13.76
2019-05-21T01:55:03.927Z,13.76
2019-05-21T01:56:03.859Z,13.71
2019-05-21T01:57:03.772Z,13.70
2019-05-21T01:58:03.696Z,13.76
2019-05-21T01:59:03.618Z,13.71
2019-05-21T02:00:03.642Z,13.73
2019-05-21T02:01:03.465Z,13.74
2019-05-21T02:02:03.389Z,13.68
2019-05-21T02:03:03.312Z,13.73
2019-05-21T02:04:03.244Z,13.70
2019-05-21T02:05:03.162Z,13.68
2019-05-21T02:06:03.089Z,13.73
2019-05-21T02:07:03.015Z,13.71
2019-05-21T02:08:02.942Z,13.74
2019-05-21T02:09:02.859Z,13.73
2019-05-21T02:10:02.783Z,13.77
2019-05-21T02:11:02.705Z,13.73
2019-05-21T02:12:02.631Z,13.70
2019-05-21T02:13:02.560Z,13.74
2019-05-21T02:14:02.478Z,13.73
2019-05-21T02:15:02.401Z,13.73
2019-05-21T02:16:02.328Z,13.74
2019-05-21T02:17:02.250Z,13.78
2019-05-21T02:18:02.181Z,13.81
2019-05-21T02:19:02.214Z,13.77
2019-05-21T02:20:02.022Z,13.70
2019-05-21T02:21:01.962Z,13.71
2019-05-21T02:22:01.869Z,13.77
2019-05-21T02:23:01.793Z,13.70
2019-05-21T02:24:01.719Z,13.76
2019-05-21T02:25:01.641Z,13.74
2019-05-21T02:26:01.566Z,13.73
2019-05-21T02:27:01.489Z,13.77
2019-05-21T02:28:01.414Z,13.71
2019-05-21T02:29:01.345Z,13.71
2019-05-21T02:30:01.347Z,13.71
2019-05-21T02:31:01.190Z,13.71
2019-05-21T02:32:01.209Z,13.70
2019-05-21T02:33:01.032Z,13.68
2019-05-21T02:34:00.956Z,13.65
2019-05-21T02:35:00.881Z,13.71
2019-05-21T02:36:00.806Z,13.70
2019-05-21T02:37:00.731Z,13.65
2019-05-21T02:38:00.653Z,13.74
2019-05-21T02:39:00.577Z,13.68
2019-05-21T02:40:00.506Z,13.65
2019-05-21T02:41:00.425Z,13.59
2019-05-21T02:42:00.350Z,13.62
2019-05-21T02:43:00.273Z,13.63
2019-05-21T02:44:00.198Z,13.65
2019-05-21T02:45:00.157Z,13.68
2019-05-21T02:46:00.046Z,13.63
2019-05-21T02:47:00.072Z,13.65
2019-05-21T02:47:59.892Z,13.62
2019-05-21T02:48:59.815Z,13.70
2019-05-21T02:49:59.744Z,13.66
2019-05-21T02:50:59.661Z,13.66
2019-05-21T02:51:59.587Z,13.68
2019-05-21T02:52:59.533Z,13.61
2019-05-21T02:53:59.442Z,13.61
2019-05-21T02:54:59.386Z,13.56
2019-05-21T02:55:59.320Z,13.70
2019-05-21T02:56:59.206Z,13.61
2019-05-21T02:57:59.132Z,13.61
2019-05-21T02:58:59.053Z,13.59
2019-05-21T02:59:58.979Z,13.65
2019-05-21T03:00:58.904Z,13.61
2019-05-21T03:01:58.927Z,13.61
2019-05-21T03:02:58.756Z,13.62
2019-05-21T03:03:58.699Z,13.62
2019-05-21T03:04:58.602Z,13.65
2019-05-21T03:06:13.119Z,13.65
2019-05-21T03:06:58.544Z,13.61
2019-05-21T03:07:58.369Z,13.56
2019-05-21T03:08:58.293Z,13.65
2019-05-21T03:09:58.215Z,13.56
2019-05-21T03:10:58.144Z,13.59
2019-05-21T03:11:58.064Z,13.55
2019-05-21T03:12:57.988Z,13.56
2019-05-21T03:13:57.914Z,13.56
2019-05-21T03:14:57.839Z,13.55
2019-05-21T03:15:57.765Z,13.61
2019-05-21T03:16:57.684Z,13.59
2019-05-21T03:17:57.612Z,13.53
2019-05-21T03:18:57.532Z,13.47
2019-05-21T03:19:57.469Z,13.55
2019-05-21T03:20:57.391Z,13.50
2019-05-21T03:21:57.299Z,13.56
2019-05-21T03:22:57.230Z,13.55
2019-05-21T03:23:57.152Z,13.53
2019-05-21T03:25:01.855Z,13.52
2019-05-21T03:25:56.995Z,13.56
2019-05-21T03:26:56.917Z,13.52
2019-05-21T03:27:56.841Z,13.50
2019-05-21T03:28:56.773Z,13.58
2019-05-21T03:29:56.698Z,13.48
2019-05-21T03:30:56.610Z,13.52
2019-05-21T03:31:56.534Z,13.47
2019-05-21T03:32:56.467Z,13.47
2019-05-21T03:33:56.396Z,13.43
2019-05-21T03:34:56.341Z,13.45
2019-05-21T03:35:56.355Z,13.47
2019-05-21T03:36:56.149Z,13.53
2019-05-21T03:37:56.088Z,13.48
2019-05-21T03:38:55.997Z,13.44
2019-05-21T03:39:55.935Z,13.41
2019-05-21T03:40:55.846Z,13.44
2019-05-21T03:41:55.769Z,13.47
2019-05-21T03:42:55.690Z,13.41
2019-05-21T03:43:55.624Z,13.44
2019-05-21T03:44:59.755Z,13.45
2019-05-21T03:45:55.459Z,13.44
2019-05-21T03:46:55.392Z,13.43
2019-05-21T03:47:55.308Z,13.41
2019-05-21T03:48:55.230Z,13.40
2019-05-21T03:49:55.155Z,13.43
2019-05-21T03:50:55.077Z,13.41
2019-05-21T03:51:55.000Z,13.40
2019-05-21T03:52:54.930Z,13.43
2019-05-21T03:53:54.848Z,13.40
2019-05-21T03:54:54.771Z,13.40
2019-05-21T03:55:54.697Z,13.43
2019-05-21T03:56:54.617Z,13.38
2019-05-21T03:57:54.539Z,13.44
2019-05-21T03:58:54.467Z,13.38
2019-05-21T03:59:54.385Z,13.36
2019-05-21T04:00:54.309Z,13.43
2019-05-21T04:01:54.234Z,13.43
2019-05-21T04:02:54.156Z,13.37
2019-05-21T04:03:54.079Z,13.40
2019-05-21T04:04:54.002Z,13.40
2019-05-21T04:05:53.926Z,13.44
2019-05-21T04:06:53.856Z,13.44
2019-05-21T04:07:53.776Z,13.47
2019-05-21T04:08:53.694Z,13.45
2019-05-21T04:09:53.619Z,13.43
2019-05-21T04:10:53.547Z,13.37
2019-05-21T04:11:53.696Z,13.45
2019-05-21T04:12:53.393Z,13.37
2019-05-21T04:13:53.322Z,13.41
2019-05-21T04:14:53.236Z,13.33
2019-05-21T04:15:53.159Z,13.28
2019-05-21T04:16:53.081Z,13.29
2019-05-21T04:17:53.005Z,13.38
2019-05-21T04:18:52.943Z,13.41
2019-05-21T04:19:52.855Z,13.37
2019-05-21T04:20:52.778Z,13.28
2019-05-21T04:21:52.699Z,13.32
2019-05-21T04:22:52.622Z,13.36
2019-05-21T04:23:52.545Z,13.40
2019-05-21T04:24:52.469Z,13.38
2019-05-21T04:25:52.391Z,13.29
2019-05-21T04:26:52.319Z,13.38
2019-05-21T04:27:52.239Z,13.38
2019-05-21T04:28:52.161Z,13.40
2019-05-21T04:29:52.084Z,13.37
2019-05-21T04:30:52.008Z,13.40
2019-05-21T04:31:51.930Z,13.41
2019-05-21T04:32:51.858Z,13.24
2019-05-21T04:33:51.778Z,13.41
2019-05-21T04:34:51.702Z,13.37
2019-05-21T04:35:51.628Z,13.37
2019-05-21T04:37:08.868Z,13.36
2019-05-21T04:37:51.471Z,13.38
2019-05-21T04:38:51.400Z,13.24
2019-05-21T04:39:51.327Z,13.38
2019-05-21T04:40:51.243Z,13.41
2019-05-21T04:41:51.166Z,13.37
2019-05-21T04:42:51.086Z,13.41
2019-05-21T04:43:51.009Z,13.38
2019-05-21T04:44:50.934Z,13.41
2019-05-21T04:45:50.870Z,13.40
2019-05-21T04:46:50.780Z,13.40
2019-05-21T04:47:50.703Z,13.27
2019-05-21T04:48:50.625Z,13.29
2019-05-21T04:49:50.560Z,13.29
2019-05-21T04:50:50.473Z,13.29
2019-05-21T04:51:50.394Z,13.27
2019-05-21T04:52:50.321Z,13.28
2019-05-21T04:53:50.241Z,13.25
2019-05-21T04:54:50.164Z,13.28
2019-05-21T04:55:50.087Z,13.27
2019-05-21T04:56:50.010Z,13.32
2019-05-21T04:57:49.936Z,13.33
2019-05-21T04:58:49.855Z,13.27
2019-05-21T04:59:49.780Z,13.22
2019-05-21T05:00:49.712Z,13.24
2019-05-21T05:01:49.630Z,13.17
2019-05-21T05:02:49.549Z,13.22
2019-05-21T05:03:49.473Z,13.25
2019-05-21T05:04:49.397Z,13.22
2019-05-21T05:05:49.318Z,13.24
2019-05-21T05:06:49.252Z,13.17
2019-05-21T05:07:49.177Z,13.11
2019-05-21T05:08:49.087Z,13.07
2019-05-21T05:09:49.010Z,13.17
2019-05-21T05:10:49.517Z,13.15
2019-05-21T05:11:48.857Z,13.21
2019-05-21T05:12:48.780Z,13.15
2019-05-21T05:13:48.702Z,13.18
2019-05-21T05:14:48.626Z,13.18
2019-05-21T05:15:48.550Z,13.15
2019-05-21T05:16:48.472Z,13.18
2019-05-21T05:17:48.394Z,13.04
2019-05-21T05:18:48.318Z,13.11
2019-05-21T05:19:48.252Z,13.07
2019-05-21T05:20:48.167Z,13.11
2019-05-21T05:21:48.089Z,13.14
2019-05-21T05:22:48.010Z,13.07
2019-05-21T05:23:47.939Z,13.19
2019-05-21T05:24:47.858Z,13.04
2019-05-21T05:25:47.782Z,13.14
2019-05-21T05:26:47.702Z,13.04
2019-05-21T05:27:47.726Z,13.17
2019-05-21T05:28:47.548Z,13.11
2019-05-21T05:29:47.471Z,13.07
2019-05-21T05:30:47.396Z,13.07
2019-05-21T05:31:47.319Z,13.02
2019-05-21T05:32:47.246Z,13.02
2019-05-21T05:33:47.166Z,13.09
2019-05-21T05:34:47.089Z,13.10
2019-05-21T05:35:47.009Z,13.11
2019-05-21T05:36:46.932Z,13.09
2019-05-21T05:37:48.992Z,13.02
2019-05-21T05:38:46.779Z,13.06
2019-05-21T05:39:46.702Z,13.06
2019-05-21T05:40:46.624Z,13.09
2019-05-21T05:41:46.548Z,13.04
2019-05-21T05:42:46.472Z,13.04
2019-05-21T05:43:46.393Z,13.10
2019-05-21T05:44:46.318Z,13.15
2019-05-21T05:45:46.240Z,13.06
2019-05-21T05:46:46.164Z,12.99
2019-05-21T05:47:46.086Z,13.03
2019-05-21T05:48:46.010Z,13.03
2019-05-21T05:49:45.933Z,13.00
2019-05-21T05:50:45.856Z,13.00
2019-05-21T05:51:45.788Z,13.04
2019-05-21T05:52:45.702Z,13.07
2019-05-21T05:53:45.625Z,13.07
2019-05-21T05:54:45.546Z,12.94
2019-05-21T05:55:45.485Z,12.97
2019-05-21T05:56:45.395Z,12.94
2019-05-21T05:57:45.316Z,13.00
2019-05-21T05:58:45.276Z,13.02
2019-05-21T05:59:45.164Z,12.94
2019-05-21T06:00:45.193Z,12.96
2019-05-21T06:01:45.008Z,12.92
2019-05-21T06:02:44.939Z,12.88
2019-05-21T06:03:44.852Z,12.97
2019-05-21T06:04:44.781Z,12.89
2019-05-21T06:05:44.699Z,12.94
2019-05-21T06:06:44.627Z,13.02
2019-05-21T06:07:58.772Z,12.99
2019-05-21T06:08:44.468Z,12.99
2019-05-21T06:09:44.392Z,12.97
2019-05-21T06:10:44.313Z,12.91
2019-05-21T06:11:44.237Z,12.96
2019-05-21T06:12:44.210Z,12.97
2019-05-21T06:13:44.089Z,12.97
2019-05-21T06:14:44.010Z,13.02
2019-05-21T06:15:43.929Z,13.04
2019-05-21T06:16:43.852Z,13.00
2019-05-21T06:17:43.776Z,13.03
2019-05-21T06:18:43.698Z,12.97
2019-05-21T06:19:43.621Z,13.00
2019-05-21T06:20:43.548Z,12.99
2019-05-21T06:21:43.468Z,13.06
2019-05-21T06:22:43.391Z,13.03
2019-05-21T06:23:43.311Z,12.99
2019-05-21T06:24:43.235Z,13.04
2019-05-21T06:25:43.191Z,13.04
2019-05-21T06:26:43.080Z,13.06
2019-05-21T06:27:43.003Z,13.06
2019-05-21T06:28:42.928Z,13.09
2019-05-21T06:29:42.852Z,13.02
2019-05-21T06:30:42.773Z,13.02
2019-05-21T06:31:42.797Z,13.06
2019-05-21T06:32:42.620Z,13.00
2019-05-21T06:33:42.596Z,13.00
2019-05-21T06:34:42.466Z,13.02
2019-05-21T06:35:42.400Z,12.97
2019-05-21T06:36:42.313Z,12.97
2019-05-21T06:37:42.239Z,12.92
2019-05-21T06:38:42.155Z,12.96
2019-05-21T06:39:42.079Z,13.02
2019-05-21T06:40:42.004Z,13.04
2019-05-21T06:41:41.928Z,13.03
2019-05-21T06:42:41.848Z,13.00
2019-05-21T06:43:41.771Z,13.00
2019-05-21T06:44:41.904Z,13.04
2019-05-21T06:45:41.635Z,12.94
2019-05-21T06:46:41.539Z,13.03
2019-05-21T06:47:41.464Z,13.04
2019-05-21T06:48:41.388Z,13.06
2019-05-21T06:49:41.311Z,13.06
2019-05-21T06:50:41.234Z,12.99
2019-05-21T06:51:41.162Z,13.02
2019-05-21T06:52:41.083Z,13.00
2019-05-21T06:53:41.004Z,13.06
2019-05-21T06:54:40.926Z,13.09
2019-05-21T06:55:40.852Z,13.03
2019-05-21T06:56:40.774Z,13.04
2019-05-21T06:57:40.696Z,13.09
2019-05-21T06:58:40.616Z,13.04
2019-05-21T06:59:40.541Z,13.09
2019-05-21T07:00:40.465Z,13.06
2019-05-21T07:01:40.387Z,13.06
2019-05-21T07:02:40.310Z,13.03
2019-05-21T07:03:40.340Z,13.11
2019-05-21T07:04:40.158Z,13.07
2019-05-21T07:05:56.108Z,13.06
2019-05-21T07:06:40.012Z,13.04
2019-05-21T07:07:39.928Z,13.04
2019-05-21T07:08:39.950Z,13.07
2019-05-21T07:09:39.774Z,13.10
2019-05-21T07:10:39.700Z,13.00
2019-05-21T07:11:39.619Z,12.96
2019-05-21T07:12:39.544Z,13.02
2019-05-21T07:13:39.521Z,13.09
2019-05-21T07:14:39.389Z,13.09
2019-05-21T07:15:39.325Z,13.09
2019-05-21T07:16:39.236Z,13.06
2019-05-21T07:17:39.159Z,13.07
2019-05-21T07:18:41.297Z,13.07
2019-05-21T07:19:39.005Z,13.00
2019-05-21T07:20:38.929Z,13.06
2019-05-21T07:21:38.853Z,12.99
2019-05-21T07:22:38.804Z,13.04
2019-05-21T07:23:38.699Z,13.03
2019-05-21T07:24:38.654Z,13.04
2019-05-21T07:25:38.646Z,13.03
2019-05-21T07:26:38.473Z,13.07
2019-05-21T07:27:38.393Z,13.07
2019-05-21T07:28:38.319Z,13.09
2019-05-21T07:29:38.239Z,13.07
2019-05-21T07:30:38.163Z,13.10
2019-05-21T07:31:38.085Z,13.03
2019-05-21T07:32:38.021Z,13.10
2019-05-21T07:33:37.935Z,13.04
2019-05-21T07:34:37.862Z,13.03
2019-05-21T07:35:37.778Z,13.10
2019-05-21T07:36:37.705Z,13.09
2019-05-21T07:37:37.626Z,13.11
2019-05-21T07:38:52.114Z,13.09
2019-05-21T07:39:37.474Z,13.00
2019-05-21T07:40:37.396Z,13.07
2019-05-21T07:41:37.323Z,13.04
2019-05-21T07:42:37.246Z,13.07
2019-05-21T07:43:37.177Z,13.07
2019-05-21T07:44:37.091Z,12.96
2019-05-21T07:45:37.014Z,13.09
2019-05-21T07:46:39.538Z,13.04
2019-05-21T07:47:36.864Z,13.06
2019-05-21T07:48:36.785Z,13.02
2019-05-21T07:49:36.709Z,13.09
2019-05-21T07:50:36.632Z,13.09
2019-05-21T07:51:36.554Z,13.10
2019-05-21T07:52:36.479Z,13.11
2019-05-21T07:53:36.401Z,13.09
2019-05-21T07:54:36.325Z,13.11
2019-05-21T07:55:36.256Z,13.07
2019-05-21T07:56:36.173Z,13.07
2019-05-21T07:57:36.097Z,13.15
2019-05-21T07:58:36.018Z,13.04
2019-05-21T07:59:35.942Z,13.09
2019-05-21T08:00:35.867Z,13.10
2019-05-21T08:01:35.791Z,13.15
2019-05-21T08:02:35.720Z,13.09
2019-05-21T08:03:35.638Z,13.14
2019-05-21T08:04:35.570Z,13.09
2019-05-21T08:05:35.485Z,13.18
2019-05-21T08:06:35.409Z,13.03
2019-05-21T08:07:35.332Z,13.19
2019-05-21T08:08:35.258Z,13.17
2019-05-21T08:09:35.180Z,13.18
2019-05-21T08:10:35.104Z,13.10
2019-05-21T08:11:35.027Z,13.11
2019-05-21T08:12:39.440Z,13.21
2019-05-21T08:13:34.881Z,13.25
2019-05-21T08:14:34.806Z,13.29
2019-05-21T08:15:34.726Z,13.19
2019-05-21T08:16:34.648Z,13.19
2019-05-21T08:17:34.571Z,13.22
2019-05-21T08:18:34.496Z,13.27
2019-05-21T08:19:34.420Z,13.14
2019-05-21T08:20:34.401Z,13.25
2019-05-21T08:21:34.268Z,13.21
2019-05-21T08:22:34.194Z,13.15
2019-05-21T08:23:34.112Z,13.32
2019-05-21T08:24:34.038Z,13.36
2019-05-21T08:25:33.961Z,13.29
2019-05-21T08:26:33.901Z,13.32
2019-05-21T08:27:33.807Z,13.25
2019-05-21T08:28:33.733Z,13.29
2019-05-21T08:29:33.659Z,13.27
2019-05-21T08:30:33.613Z,13.32
2019-05-21T08:31:33.509Z,13.32
2019-05-21T08:32:33.427Z,13.25
2019-05-21T08:33:33.351Z,13.29
2019-05-21T08:34:33.278Z,13.32
2019-05-21T08:35:33.197Z,13.25
2019-05-21T08:36:33.123Z,13.29
2019-05-21T08:37:33.048Z,13.24
2019-05-21T08:38:32.971Z,13.41
2019-05-21T08:39:32.893Z,13.40
2019-05-21T08:40:32.818Z,13.38
2019-05-21T08:41:32.743Z,13.38
2019-05-21T08:42:32.667Z,13.38
2019-05-21T08:43:32.590Z,13.37
2019-05-21T08:44:32.524Z,13.47
2019-05-21T08:45:32.435Z,13.44
2019-05-21T08:46:32.394Z,13.37
2019-05-21T08:47:32.392Z,13.41
2019-05-21T08:48:32.207Z,13.40
2019-05-21T08:49:32.132Z,13.40
2019-05-21T08:50:32.054Z,13.38
2019-05-21T08:51:31.978Z,13.38
2019-05-21T08:52:31.901Z,13.45
2019-05-21T08:53:31.827Z,13.38
2019-05-21T08:54:31.750Z,13.40
2019-05-21T08:55:31.674Z,13.44
2019-05-21T08:56:31.597Z,13.38
2019-05-21T08:57:31.523Z,13.41
2019-05-21T08:58:31.444Z,13.36
2019-05-21T08:59:31.372Z,13.45
2019-05-21T09:00:31.292Z,13.41
2019-05-21T09:01:31.216Z,13.40
2019-05-21T09:02:31.149Z,13.41
2019-05-21T09:03:31.063Z,13.43
2019-05-21T09:04:45.367Z,13.41
2019-05-21T09:05:30.908Z,13.37
2019-05-21T09:06:30.834Z,13.37
2019-05-21T09:07:30.786Z,13.33
2019-05-21T09:08:30.679Z,13.28
2019-05-21T09:09:48.582Z,13.24
2019-05-21T09:10:30.527Z,13.33
2019-05-21T09:11:30.454Z,13.38
2019-05-21T09:12:30.403Z,13.40
2019-05-21T09:13:30.299Z,13.40
2019-05-21T09:14:30.221Z,13.40
2019-05-21T09:15:30.161Z,13.45
2019-05-21T09:16:30.071Z,13.43
2019-05-21T09:17:29.994Z,13.45
2019-05-21T09:18:29.920Z,13.44
2019-05-21T09:19:29.845Z,13.52
2019-05-21T09:20:29.764Z,13.47
2019-05-21T09:21:29.689Z,13.47
2019-05-21T09:22:29.613Z,13.37
2019-05-21T09:23:29.538Z,13.47
2019-05-21T09:24:29.461Z,13.47
2019-05-21T09:25:29.385Z,13.44
2019-05-21T09:26:29.309Z,13.43
2019-05-21T09:27:29.232Z,13.45
2019-05-21T09:28:29.159Z,13.47
2019-05-21T09:29:29.086Z,13.43
2019-05-21T09:30:29.005Z,13.40
2019-05-21T09:31:28.927Z,13.50
2019-05-21T09:32:28.853Z,13.47
2019-05-21T09:33:28.777Z,13.47
2019-05-21T09:34:28.701Z,13.47
2019-05-21T09:35:28.624Z,13.45
2019-05-21T09:36:28.554Z,13.53
2019-05-21T09:37:28.473Z,13.56
2019-05-21T09:38:28.400Z,13.58
2019-05-21T09:39:28.320Z,13.58
2019-05-21T09:40:28.245Z,13.52
2019-05-21T09:41:28.171Z,13.55
2019-05-21T09:42:28.091Z,13.70
2019-05-21T09:43:28.016Z,13.59
2019-05-21T09:44:27.943Z,13.58
2019-05-21T09:45:27.864Z,13.55
2019-05-21T09:46:27.788Z,13.56
2019-05-21T09:47:27.713Z,13.59
2019-05-21T09:48:27.635Z,13.58
2019-05-21T09:49:27.560Z,13.55
2019-05-21T09:50:27.482Z,13.56
2019-05-21T09:51:27.407Z,13.58
2019-05-21T09:52:27.333Z,13.58
2019-05-21T09:53:27.256Z,13.61
2019-05-21T09:54:27.180Z,13.61
2019-05-21T09:55:27.102Z,13.66
2019-05-21T09:56:27.026Z,13.76
2019-05-21T09:57:26.950Z,13.70
2019-05-21T09:58:26.874Z,13.74
2019-05-21T09:59:26.798Z,13.71
2019-05-21T10:00:26.722Z,13.74
2019-05-21T10:01:26.648Z,13.74
2019-05-21T10:02:26.569Z,13.74
2019-05-21T10:03:26.494Z,13.73
2019-05-21T10:04:26.419Z,13.70
2019-05-21T10:05:26.346Z,13.80
2019-05-21T10:06:26.266Z,13.71
2019-05-21T10:07:39.245Z,13.73
2019-05-21T10:08:26.213Z,13.71
2019-05-21T10:09:26.038Z,13.78
2019-05-21T10:10:25.962Z,13.70
2019-05-21T10:11:25.886Z,13.81
2019-05-21T10:12:25.809Z,13.84
2019-05-21T10:13:25.735Z,13.80
2019-05-21T10:14:25.663Z,13.73
2019-05-21T10:15:25.582Z,13.83
2019-05-21T10:16:25.506Z,13.74
2019-05-21T10:17:25.431Z,13.80
2019-05-21T10:18:25.356Z,13.78
2019-05-21T10:19:25.279Z,13.89
2019-05-21T10:20:25.201Z,13.86
2019-05-21T10:21:25.131Z,13.87
2019-05-21T10:22:25.050Z,13.78
2019-05-21T10:23:24.976Z,13.71
2019-05-21T10:24:24.900Z,13.70
2019-05-21T10:25:24.823Z,13.80
2019-05-21T10:26:24.747Z,13.87
2019-05-21T10:27:24.672Z,13.81
2019-05-21T10:28:24.596Z,13.84
2019-05-21T10:29:24.622Z,13.84
2019-05-21T10:30:24.445Z,13.83
2019-05-21T10:31:24.368Z,13.87
2019-05-21T10:32:24.293Z,13.84
2019-05-21T10:33:24.219Z,13.74
2019-05-21T10:34:24.145Z,13.78
2019-05-21T10:35:24.069Z,13.77
2019-05-21T10:36:23.997Z,13.74
2019-05-21T10:37:23.915Z,13.86
2019-05-21T10:38:23.839Z,13.91
2019-05-21T10:39:23.769Z,13.87
2019-05-21T10:40:23.687Z,13.84
2019-05-21T10:41:23.611Z,13.77
2019-05-21T10:42:23.535Z,13.84
2019-05-21T10:43:23.461Z,13.86
2019-05-21T10:44:23.385Z,13.78
2019-05-21T10:45:23.330Z,13.71
2019-05-21T10:46:23.234Z,13.73
2019-05-21T10:47:23.158Z,13.70
2019-05-21T10:48:23.082Z,13.70
2019-05-21T10:49:23.007Z,13.68
2019-05-21T10:50:22.930Z,13.76
2019-05-21T10:51:22.852Z,13.70
2019-05-21T10:52:22.777Z,13.73
2019-05-21T10:53:22.702Z,13.81
2019-05-21T10:54:22.627Z,13.76
2019-05-21T10:55:22.549Z,13.84
2019-05-21T10:56:22.477Z,13.77
2019-05-21T10:57:22.408Z,13.81
2019-05-21T10:58:22.321Z,13.84
2019-05-21T10:59:22.246Z,13.81
2019-05-21T11:00:23.275Z,13.81
2019-05-21T11:01:22.094Z,13.87
2019-05-21T11:02:22.019Z,13.77
2019-05-21T11:03:21.942Z,13.73
2019-05-21T11:04:21.868Z,13.80
2019-05-21T11:05:21.792Z,13.87
2019-05-21T11:06:21.714Z,13.76
2019-05-21T11:07:21.654Z,13.76
2019-05-21T11:08:23.893Z,13.73
2019-05-21T11:09:21.491Z,13.70
2019-05-21T11:10:21.410Z,13.81
2019-05-21T11:11:21.504Z,13.89
2019-05-21T11:12:21.272Z,13.83
2019-05-21T11:13:21.284Z,13.84
2019-05-21T11:14:21.108Z,13.81
2019-05-21T11:15:21.086Z,13.86
2019-05-21T11:16:20.956Z,13.81
2019-05-21T11:17:20.939Z,13.84
2019-05-21T11:18:20.803Z,13.80
2019-05-21T11:19:20.729Z,13.86
2019-05-21T11:20:20.654Z,13.78
2019-05-21T11:21:20.576Z,13.80
2019-05-21T11:22:20.499Z,13.86
2019-05-21T11:23:20.423Z,13.81
2019-05-21T11:24:20.346Z,13.81
2019-05-21T11:25:20.271Z,13.84
2019-05-21T11:26:20.194Z,13.77
2019-05-21T11:27:20.119Z,13.80
2019-05-21T11:28:20.044Z,13.80
2019-05-21T11:29:19.967Z,13.87
2019-05-21T11:30:19.892Z,13.80
2019-05-21T11:31:19.824Z,13.78
2019-05-21T11:32:19.740Z,13.87
2019-05-21T11:33:19.665Z,13.84
2019-05-21T11:34:19.588Z,13.96
2019-05-21T11:35:19.510Z,13.81
2019-05-21T11:36:19.437Z,13.91
2019-05-21T11:37:19.362Z,13.95
2019-05-21T11:38:19.283Z,13.94
2019-05-21T11:39:19.208Z,13.94
2019-05-21T11:40:19.149Z,13.92
2019-05-21T11:41:19.057Z,13.92
2019-05-21T11:42:18.984Z,14.01
2019-05-21T11:43:18.906Z,14.01
2019-05-21T11:44:18.829Z,13.95
2019-05-21T11:45:31.850Z,14.01
2019-05-21T11:46:18.678Z,13.89
2019-05-21T11:47:18.605Z,13.99
2019-05-21T11:48:18.535Z,13.96
2019-05-21T11:49:18.455Z,13.92
2019-05-21T11:50:18.378Z,13.99
2019-05-21T11:51:18.300Z,13.99
2019-05-21T11:52:18.224Z,14.05
2019-05-21T11:53:18.149Z,14.14
2019-05-21T11:54:18.072Z,14.07
2019-05-21T11:55:17.996Z,14.14
2019-05-21T11:56:17.934Z,14.16
2019-05-21T11:57:17.844Z,14.13
2019-05-21T11:58:17.771Z,14.10
2019-05-21T11:59:17.695Z,14.13
2019-05-21T12:00:21.501Z,14.11
2019-05-21T12:01:17.544Z,14.24
2019-05-21T12:02:17.466Z,14.16
2019-05-21T12:03:17.399Z,14.07
2019-05-21T12:04:17.317Z,14.10
2019-05-21T12:05:17.242Z,14.10
2019-05-21T12:06:17.164Z,14.07
2019-05-21T12:07:17.088Z,14.05
2019-05-21T12:08:17.013Z,14.05
2019-05-21T12:09:16.944Z,14.11
2019-05-21T12:10:16.865Z,14.09
2019-05-21T12:11:17.015Z,14.02
2019-05-21T12:12:16.711Z,14.01
2019-05-21T12:13:20.244Z,13.95
2019-05-21T12:14:16.581Z,13.91
2019-05-21T12:15:16.486Z,13.96
2019-05-21T12:16:16.411Z,13.87
2019-05-21T12:17:16.335Z,13.81
2019-05-21T12:18:16.259Z,13.86
2019-05-21T12:19:16.184Z,13.87
2019-05-21T12:20:16.108Z,13.83
2019-05-21T12:21:16.034Z,13.87
2019-05-21T12:22:15.955Z,13.83
2019-05-21T12:23:15.880Z,13.86
2019-05-21T12:24:15.805Z,13.83
2019-05-21T12:25:15.732Z,13.84
2019-05-21T12:26:15.655Z,13.84
2019-05-21T12:27:15.594Z,13.71
2019-05-21T12:28:15.505Z,13.73
2019-05-21T12:29:15.460Z,13.74
2019-05-21T12:30:15.452Z,13.76
2019-05-21T12:31:15.276Z,13.65
2019-05-21T12:32:15.201Z,13.74
2019-05-21T12:33:15.125Z,13.74
2019-05-21T12:34:15.050Z,13.63
2019-05-21T12:35:14.973Z,13.65
2019-05-21T12:36:14.897Z,13.68
2019-05-21T12:37:14.876Z,13.76
2019-05-21T12:38:14.748Z,13.74
2019-05-21T12:39:15.046Z,13.71
2019-05-21T12:40:14.599Z,13.74
2019-05-21T12:41:14.532Z,13.86
2019-05-21T12:42:14.441Z,13.81
2019-05-21T12:43:14.366Z,13.81
2019-05-21T12:44:14.298Z,13.92
2019-05-21T12:45:14.215Z,13.96
2019-05-21T12:46:14.141Z,13.98
2019-05-21T12:47:14.063Z,13.86
2019-05-21T12:48:13.988Z,13.80
2019-05-21T12:49:14.118Z,13.91
2019-05-21T12:50:13.835Z,13.92
2019-05-21T12:51:13.860Z,13.92